.
WxDataArchive / Data Records for 2008-08-12
2008-08-11 August 2008 2008-08-13

Data Records for Tuesday, 12 August 2008

Time	Temp	Chill	HIndex	Humid	Dewpt	 Wind 	HiWind	WindDir	Rain 	Barom 
-----	----	-----	------	-----	-----	------	------	-------	-----	----- 
00:00	62.0	62.0	62.0	84	57.1	0	0	---	0.00	29.911 
00:05	62.0	62.0	62.0	84	57.1	0	0	---	0.00	29.911 
00:10	61.8	61.8	61.8	84	56.9	0	0	---	0.00	29.911 
00:15	61.6	61.6	61.6	85	57.0	0	0	---	0.00	29.911 
00:20	61.3	61.3	61.3	85	56.7	0	0	---	0.00	29.910 
00:25	61.2	61.2	61.2	86	57.0	0	0	---	0.00	29.909 
00:30	61.0	61.0	61.0	86	56.8	0	0	---	0.00	29.909 
00:35	60.9	60.9	60.9	87	57.0	0	0	---	0.00	29.908 
00:40	60.9	60.9	60.9	87	57.0	0	0	---	0.00	29.908 
00:45	60.9	60.9	60.9	88	57.3	0	0	---	0.00	29.906 
00:50	60.9	60.9	60.9	88	57.3	0	0	---	0.00	29.906 
00:55	60.7	60.7	60.7	88	57.1	0	0	---	0.00	29.904 
01:00	60.5	60.5	60.5	88	56.9	0	0	---	0.00	29.904 
01:05	60.5	60.5	60.5	88	56.9	0	0	---	0.00	29.905 
01:10	60.4	60.4	60.4	89	57.1	0	0	---	0.00	29.904 
01:15	60.4	60.4	60.4	89	57.1	0	0	---	0.00	29.902 
01:20	60.4	60.4	60.4	89	57.1	0	0	---	0.00	29.902 
01:25	60.2	60.2	60.2	89	56.9	0	0	---	0.00	29.902 
01:30	60.1	60.1	60.1	89	56.8	0	0	---	0.00	29.904 
01:35	60.1	60.1	60.1	89	56.8	0	0	---	0.00	29.905 
01:40	60.1	60.1	60.1	90	57.2	0	0	---	0.00	29.907 
01:45	59.9	59.9	59.9	90	57.0	0	0	---	0.00	29.909 
01:50	59.8	59.8	59.8	90	56.9	0	0	---	0.00	29.909 
01:55	59.8	59.8	59.8	90	56.9	0	0	---	0.00	29.908 
02:00	59.6	59.6	59.6	90	56.7	0	0	---	0.00	29.908 
02:05	59.5	59.5	59.5	90	56.6	0	0	---	0.00	29.907 
02:10	59.3	59.3	59.3	90	56.4	0	0	---	0.00	29.909 
02:15	59.2	59.2	59.2	91	56.6	0	0	---	0.00	29.907 
02:20	59.0	59.0	59.0	91	56.4	0	0	---	0.00	29.907 
02:25	58.9	58.9	58.9	91	56.3	0	0	---	0.00	29.908 
02:30	58.9	58.9	58.9	91	56.3	0	0	---	0.00	29.907 
02:35	58.7	58.7	58.7	91	56.1	0	0	---	0.00	29.906 
02:40	58.6	58.6	58.6	91	56.0	0	0	---	0.00	29.907 
02:45	58.4	58.4	58.4	92	56.1	0	0	---	0.00	29.906 
02:50	58.3	58.3	58.3	92	56.0	0	0	---	0.00	29.905 
02:55	58.3	58.3	58.3	92	56.0	0	0	---	0.00	29.905 
03:00	58.1	58.1	58.1	92	55.8	0	0	---	0.00	29.904 
03:05	58.1	58.1	58.1	92	55.8	0	0	---	0.00	29.904 
03:10	58.0	58.0	58.0	92	55.7	0	0	---	0.00	29.902 
03:15	57.8	57.8	57.8	93	55.8	0	0	---	0.00	29.901 
03:20	57.8	57.8	57.8	93	55.8	0	0	---	0.00	29.900 
03:25	57.6	57.6	57.6	93	55.6	0	0	---	0.00	29.899 
03:30	57.5	57.5	57.5	93	55.5	0	0	---	0.00	29.901 
03:35	57.5	57.5	57.5	93	55.5	0	0	---	0.00	29.902 
03:40	57.5	57.5	57.5	93	55.5	0	0	---	0.00	29.900 
03:45	57.3	57.3	57.3	94	55.6	0	0	---	0.00	29.901 
03:50	57.3	57.3	57.3	94	55.6	0	0	---	0.00	29.901 
03:55	57.2	57.2	57.2	94	55.5	0	0	---	0.00	29.900 
04:00	57.2	57.2	57.2	94	55.5	0	0	---	0.00	29.899 
04:05	57.0	57.0	57.0	94	55.3	0	0	---	0.00	29.900 
04:10	57.0	57.0	57.0	94	55.3	0	0	---	0.00	29.900 
04:15	56.9	56.9	56.9	94	55.2	0	0	---	0.00	29.899 
04:20	56.9	56.9	56.9	94	55.2	0	0	---	0.00	29.898 
04:25	56.7	56.7	56.7	94	55.0	0	0	---	0.00	29.899 
04:30	56.6	56.6	56.6	94	54.9	0	0	---	0.00	29.898 
04:35	56.5	56.5	56.5	94	54.8	0	0	---	0.00	29.899 
04:40	56.5	56.5	56.5	94	54.8	0	0	---	0.00	29.898 
04:45	56.5	56.5	56.5	94	54.8	0	0	---	0.00	29.898 
04:50	56.5	56.5	56.5	95	55.1	0	0	---	0.00	29.898 
04:55	56.3	56.3	56.3	95	54.9	0	0	---	0.00	29.898 
05:00	56.3	56.3	56.3	95	54.9	0	0	---	0.00	29.899 
05:05	56.3	56.3	56.3	95	54.9	0	0	---	0.00	29.899 
05:10	56.2	56.2	56.2	95	54.8	0	0	---	0.00	29.900 
05:15	56.2	56.2	56.2	95	54.8	0	0	---	0.00	29.900 
05:20	56.0	56.0	56.0	95	54.6	0	0	---	0.00	29.900 
05:25	56.0	56.0	56.0	95	54.6	0	0	---	0.00	29.900 
05:30	55.9	55.9	55.9	95	54.5	0	0	---	0.00	29.900 
05:35	55.9	55.9	55.9	95	54.5	0	0	---	0.00	29.901 
05:40	55.9	55.9	55.9	95	54.5	0	0	---	0.00	29.900 
05:45	55.7	55.7	55.7	95	54.3	0	0	---	0.00	29.901 
05:50	55.7	55.7	55.7	95	54.3	0	0	---	0.00	29.904 
05:55	55.7	55.7	55.7	95	54.3	0	0	---	0.00	29.905 
06:00	55.7	55.7	55.7	95	54.3	0	0	---	0.00	29.907 
06:05	55.7	55.7	55.7	95	54.3	0	0	---	0.00	29.910 
06:10	55.7	55.7	55.7	95	54.3	0	0	---	0.00	29.910 
06:15	55.7	55.7	55.7	96	54.6	0	0	---	0.00	29.910 
06:20	55.7	55.7	55.7	96	54.6	0	0	---	0.00	29.911 
06:25	55.9	55.9	55.9	96	54.8	0	0	---	0.00	29.910 
06:30	56.0	56.0	56.0	96	54.9	0	0	---	0.00	29.911 
06:35	56.3	56.3	56.3	96	55.2	0	0	---	0.00	29.910 
06:40	56.6	56.6	56.6	96	55.5	0	0	---	0.00	29.910 
06:45	57.2	57.2	57.2	96	56.1	0	0	---	0.00	29.909 
06:50	58.0	58.0	58.0	96	56.9	0	0	---	0.00	29.904 
06:55	58.9	58.9	58.9	96	57.8	0	0	---	0.00	29.904 
07:00	59.6	59.6	59.6	96	58.5	0	0	---	0.00	29.900 
07:05	60.5	60.5	60.5	96	59.4	0	0	---	0.00	29.904 
07:10	61.2	61.2	61.2	96	60.0	0	0	---	0.00	29.907 
07:15	61.5	61.5	61.5	95	60.1	0	0	---	0.00	29.908 
07:20	61.6	61.6	61.6	95	60.2	0	0	---	0.00	29.907 
07:25	62.0	62.0	62.0	95	60.5	0	0	---	0.00	29.906 
07:30	62.1	62.1	62.1	94	60.3	0	0	---	0.00	29.911 
07:35	62.4	62.4	62.4	93	60.3	0	1	292	0.00	29.912 
07:40	62.9	62.9	62.9	92	60.5	0	1	292	0.00	29.912 
07:45	63.2	63.2	63.2	90	60.2	0	0	---	0.00	29.911 
07:50	64.0	64.0	64.0	87	60.0	0	1	292	0.00	29.908 
07:55	65.0	65.0	65.0	82	59.4	0	1	292	0.00	29.903 
08:00	65.8	65.8	65.8	78	58.7	0	3	338	0.00	29.899 
08:05	66.9	66.9	66.9	77	59.4	0	1	338	0.00	29.903 
08:10	67.9	67.9	67.9	75	59.7	0	1	338	0.00	29.901 
08:15	68.4	68.4	68.4	71	58.6	1	3	338	0.00	29.898 
08:20	68.6	68.6	68.6	71	58.8	1	2	338	0.00	29.897 
08:25	68.9	68.9	68.9	71	59.1	1	3	0	0.00	29.896 
08:30	69.4	69.4	69.4	70	59.2	0	2	0	0.00	29.896 
08:35	69.9	69.9	69.9	70	59.7	1	3	0	0.00	29.892 
08:40	70.1	70.1	70.1	70	59.8	1	3	0	0.00	29.892 
08:45	70.3	70.3	70.3	69	59.6	1	3	90	0.00	29.891 
08:50	70.3	70.3	70.3	69	59.6	1	3	90	0.00	29.891 
08:55	70.6	70.6	70.6	69	59.9	0	2	90	0.00	29.892 
09:00	71.3	71.3	71.3	67	59.8	0	2	90	0.00	29.892 
09:05	72.1	72.1	72.1	65	59.7	0	1	90	0.00	29.891 
09:10	73.2	73.2	73.2	60	58.5	0	2	90	0.00	29.892 
09:15	74.0	74.0	74.0	59	58.7	0	2	90	0.00	29.890 
09:20	74.7	74.7	74.7	57	58.4	0	2	90	0.00	29.891 
09:25	75.1	75.1	77.6	55	57.8	1	2	90	0.00	29.892 
09:30	74.7	74.7	74.7	58	58.9	1	4	90	0.00	29.891 
09:35	74.9	74.9	74.9	58	59.1	0	3	90	0.00	29.891 
09:40	74.9	74.9	74.9	56	58.1	1	3	90	0.00	29.890 
09:45	75.1	75.1	77.6	52	56.3	1	2	90	0.00	29.892 
09:50	75.6	75.6	77.9	53	57.2	0	2	90	0.00	29.890 
09:55	76.0	76.0	78.1	51	56.5	1	3	90	0.00	29.891 
10:00	76.1	76.1	78.1	53	57.7	1	2	90	0.00	29.891 
10:05	76.3	76.3	78.2	51	56.8	1	3	90	0.00	29.893 
10:10	76.3	76.3	78.2	52	57.4	0	2	90	0.00	29.891 
10:15	76.3	76.3	78.2	51	56.8	1	2	90	0.00	29.892 
10:20	76.7	76.7	78.5	52	57.7	1	2	90	0.00	29.892 
10:25	77.0	77.0	78.6	51	57.5	0	3	90	0.00	29.891 
10:30	77.4	77.4	78.9	51	57.8	1	2	90	0.00	29.892 
10:35	77.6	77.6	79.0	50	57.5	1	4	90	0.00	29.891 
10:40	77.9	77.9	79.2	50	57.7	1	3	90	0.00	29.892 
10:45	78.1	78.1	79.4	51	58.5	1	3	90	0.00	29.891 
10:50	78.1	78.1	79.3	49	57.4	1	3	90	0.00	29.891 
10:55	78.1	78.1	79.3	50	57.9	1	4	90	0.00	29.891 
11:00	78.3	78.3	79.2	46	55.8	1	3	90	0.00	29.889 
11:05	78.5	78.5	79.4	47	56.6	1	3	90	0.00	29.889 
11:10	78.8	78.8	79.7	48	57.4	1	3	90	0.00	29.887 
11:15	79.0	79.0	79.9	49	58.2	1	3	90	0.00	29.886 
11:20	79.4	79.4	80.0	46	56.8	1	3	68	0.00	29.883 
11:25	79.4	79.4	80.2	49	58.5	2	5	68	0.00	29.881 
11:30	79.2	79.2	79.8	45	56.0	1	4	90	0.00	29.878 
11:35	79.4	79.4	80.2	49	58.5	1	3	112	0.00	29.877 
11:40	79.8	79.8	80.3	46	57.2	1	3	112	0.00	29.874 
11:45	79.6	79.6	79.9	43	55.1	1	3	292	0.00	29.874 
11:50	79.9	79.9	80.3	45	56.6	1	5	22	0.00	29.874 
11:55	79.9	79.9	80.2	44	56.0	1	4	90	0.00	29.873 
12:00	79.9	79.9	80.2	44	56.0	1	3	90	0.00	29.871 
12:05	79.9	79.9	80.0	42	54.7	1	3	112	0.00	29.873 
12:10	80.3	80.3	80.7	46	57.6	0	2	112	0.00	29.869 
12:15	80.7	80.7	80.6	42	55.4	1	4	90	0.00	29.863 
12:20	80.5	80.5	80.2	39	53.2	1	3	90	0.00	29.865 
12:25	80.1	80.1	80.0	40	53.6	1	3	112	0.00	29.864 
12:30	80.3	80.3	80.7	46	57.6	0	2	112	0.00	29.861 
12:35	80.5	80.5	80.7	45	57.2	1	4	135	0.00	29.861 
12:40	80.3	80.3	80.3	42	55.1	2	5	90	0.00	29.860 
12:45	79.8	79.8	80.0	43	55.3	1	4	112	0.00	29.860 
12:50	79.0	79.0	79.4	42	53.9	1	4	112	0.00	29.860 
12:55	78.8	78.8	79.4	43	54.4	1	3	112	0.00	29.861 
13:00	79.2	79.2	79.6	43	54.7	1	4	112	0.00	29.860 
13:05	79.6	79.6	80.0	45	56.4	1	4	90	0.00	29.858 
13:10	79.9	79.9	80.0	42	54.7	1	4	90	0.00	29.856 
13:15	80.1	80.1	79.9	39	52.9	1	4	248	0.00	29.851 
13:20	80.3	80.3	80.6	45	57.0	1	3	248	0.00	29.851 
13:25	80.7	80.7	80.7	43	56.1	1	3	315	0.00	29.848 
13:30	80.7	80.7	80.4	40	54.1	2	6	68	0.00	29.847 
13:35	80.9	80.9	81.0	44	56.9	1	4	68	0.00	29.845 
13:40	80.7	80.7	80.7	43	56.1	1	4	90	0.00	29.845 
13:45	80.7	80.7	80.9	45	57.4	1	3	90	0.00	29.843 
13:50	80.7	80.7	80.7	43	56.1	1	4	90	0.00	29.842 
13:55	80.9	80.9	80.5	39	53.6	1	3	90	0.00	29.841 
14:00	81.2	81.2	81.0	42	55.9	1	4	248	0.00	29.840 
14:05	81.6	81.6	81.2	41	55.6	1	4	90	0.00	29.841 
14:10	81.8	81.8	81.4	41	55.8	1	4	90	0.00	29.835 
14:15	81.6	81.6	81.1	40	54.9	1	3	315	0.00	29.832 
14:20	81.6	81.6	80.8	37	52.8	1	3	315	0.00	29.829 
14:25	81.8	81.8	80.9	36	52.2	1	2	22	0.00	29.829 
14:30	81.8	81.8	81.1	38	53.7	1	4	90	0.00	29.827 
14:35	81.6	81.6	81.0	39	54.2	1	3	90	0.00	29.828 
14:40	81.8	81.8	81.5	42	56.4	1	4	90	0.00	29.827 
14:45	81.8	81.8	81.1	38	53.7	2	5	112	0.00	29.826 
14:50	80.9	80.9	80.5	39	53.6	0	4	112	0.00	29.826 
14:55	80.1	80.1	80.0	40	53.6	0	2	112	0.00	29.824 
15:00	79.6	79.6	79.7	41	53.8	0	1	112	0.00	29.821 
15:05	79.6	79.6	79.7	40	53.1	0	2	112	0.00	29.820 
15:10	79.6	79.6	79.6	39	52.4	1	2	112	0.00	29.817 
15:15	79.2	79.2	79.4	40	52.8	1	3	112	0.00	29.815 
15:20	78.8	78.8	79.2	40	52.4	0	2	112	0.00	29.814 
15:25	78.5	78.5	79.1	42	53.5	0	2	112	0.00	29.811 
15:30	78.8	78.8	79.4	44	55.0	0	2	112	0.00	29.807 
15:35	79.4	79.4	79.6	41	53.6	1	3	112	0.00	29.804 
15:40	79.8	79.8	80.0	43	55.3	0	3	112	0.00	29.803 
15:45	79.9	79.9	79.9	40	53.4	1	3	112	0.00	29.801 
15:50	80.3	80.3	80.2	41	54.4	0	3	270	0.00	29.800 
15:55	80.5	80.5	80.4	41	54.6	0	3	270	0.00	29.798 
16:00	80.7	80.7	80.4	40	54.1	0	3	270	0.00	29.797 
16:05	81.1	81.1	80.8	41	55.1	1	3	90	0.00	29.798 
16:10	80.7	80.7	80.3	39	53.4	1	4	270	0.00	29.795 
16:15	80.9	80.9	80.7	41	55.0	0	2	270	0.00	29.793 
16:20	81.2	81.2	80.8	40	54.6	0	3	270	0.00	29.793 
16:25	81.2	81.2	80.8	40	54.6	1	3	270	0.00	29.793 
16:30	80.9	80.9	80.5	39	53.6	1	3	270	0.00	29.793 
16:35	80.3	80.3	80.3	42	55.1	0	1	270	0.00	29.791 
16:40	80.1	80.1	80.0	40	53.6	0	1	248	0.00	29.789 
16:45	79.8	79.8	80.0	43	55.3	0	1	248	0.00	29.787 
16:50	79.2	79.2	79.6	43	54.7	0	1	248	0.00	29.788 
16:55	78.8	78.8	79.4	43	54.4	0	1	248	0.00	29.787 
17:00	78.5	78.5	79.2	44	54.7	0	1	248	0.00	29.788 
17:05	78.1	78.1	79.0	44	54.4	0	1	248	0.00	29.788 
17:10	77.9	77.9	78.9	44	54.2	0	1	248	0.00	29.787 
17:15	77.9	77.9	79.0	46	55.4	0	1	248	0.00	29.787 
17:20	77.9	77.9	78.9	45	54.8	0	1	248	0.00	29.787 
17:25	77.7	77.7	78.8	45	54.6	0	2	248	0.00	29.786 
17:30	77.6	77.6	78.8	46	55.2	0	1	248	0.00	29.785 
17:35	77.6	77.6	78.8	47	55.8	0	1	248	0.00	29.785 
17:40	77.6	77.6	78.8	46	55.2	0	1	248	0.00	29.783 
17:45	77.6	77.6	78.9	49	56.9	0	1	248	0.00	29.781 
17:50	77.6	77.6	78.8	47	55.8	0	0	---	0.00	29.783 
17:55	77.4	77.4	78.8	48	56.1	0	1	248	0.00	29.784 
18:00	77.2	77.2	78.7	48	56.0	0	1	248	0.00	29.785 
18:05	77.0	77.0	78.6	49	56.4	0	1	248	0.00	29.782 
18:10	77.0	77.0	78.6	50	56.9	0	1	248	0.00	29.783 
18:15	76.8	76.8	78.5	50	56.7	0	1	248	0.00	29.781 
18:20	76.8	76.8	78.5	51	57.3	0	1	248	0.00	29.781 
18:25	76.7	76.7	78.4	50	56.6	0	1	248	0.00	29.780 
18:30	76.7	76.7	78.4	50	56.6	0	1	248	0.00	29.779 
18:35	76.7	76.7	78.4	50	56.6	0	2	248	0.00	29.779 
18:40	76.7	76.7	78.4	50	56.6	0	2	248	0.00	29.781 
18:45	76.8	76.8	78.5	49	56.2	0	1	248	0.00	29.780 
18:50	76.7	76.7	78.4	50	56.6	0	1	248	0.00	29.780 
18:55	76.7	76.7	78.4	50	56.6	0	1	270	0.00	29.782 
19:00	76.3	76.3	78.2	51	56.8	0	1	270	0.00	29.781 
19:05	76.0	76.0	78.1	52	57.1	0	1	270	0.00	29.777 
19:10	75.4	75.4	77.8	54	57.6	0	1	270	0.00	29.777 
19:15	75.1	75.1	77.6	54	57.3	0	0	---	0.00	29.779 
19:20	74.7	74.7	74.7	55	57.4	0	2	270	0.00	29.780 
19:25	74.4	74.4	74.4	57	58.2	0	0	---	0.00	29.781 
19:30	73.9	73.9	73.9	58	58.2	0	0	---	0.00	29.781 
19:35	73.5	73.5	73.5	59	58.3	0	1	270	0.00	29.781 
19:40	73.0	73.0	73.0	60	58.3	0	0	---	0.00	29.782 
19:45	72.8	72.8	72.8	60	58.1	0	0	---	0.00	29.783 
19:50	72.5	72.5	72.5	61	58.3	0	0	---	0.00	29.783 
19:55	72.3	72.3	72.3	62	58.5	0	0	---	0.00	29.784 
20:00	72.0	72.0	72.0	62	58.3	0	0	---	0.00	29.784 
20:05	71.6	71.6	71.6	63	58.3	0	0	---	0.00	29.781 
20:10	71.5	71.5	71.5	64	58.7	0	0	---	0.00	29.781 
20:15	71.1	71.1	71.1	65	58.7	0	0	---	0.00	29.781 
20:20	70.8	70.8	70.8	66	58.9	0	0	---	0.00	29.781 
20:25	70.4	70.4	70.4	67	58.9	0	0	---	0.00	29.781 
20:30	70.1	70.1	70.1	67	58.6	0	0	---	0.00	29.783 
20:35	69.9	69.9	69.9	68	58.8	0	0	---	0.00	29.784 
20:40	69.6	69.6	69.6	69	59.0	0	0	---	0.00	29.784 
20:45	69.3	69.3	69.3	69	58.7	0	0	---	0.00	29.784 
20:50	69.1	69.1	69.1	69	58.5	0	0	---	0.00	29.786 
20:55	68.9	68.9	68.9	70	58.7	0	0	---	0.00	29.786 
21:00	68.6	68.6	68.6	71	58.8	0	0	---	0.00	29.786 
21:05	68.4	68.4	68.4	71	58.6	0	0	---	0.00	29.782 
21:10	68.3	68.3	68.3	72	58.9	0	0	---	0.00	29.783 
21:15	68.1	68.1	68.1	72	58.7	0	0	---	0.00	29.784 
21:20	68.1	68.1	68.1	73	59.1	0	0	---	0.00	29.783 
21:25	67.9	67.9	67.9	73	58.9	0	0	---	0.00	29.783 
21:30	67.8	67.8	67.8	73	58.8	0	0	---	0.00	29.784 
21:35	67.8	67.8	67.8	73	58.8	0	0	---	0.00	29.786 
21:40	67.8	67.8	67.8	73	58.8	0	0	---	0.00	29.785 
21:45	67.8	67.8	67.8	73	58.8	0	0	---	0.00	29.785 
21:50	67.9	67.9	67.9	72	58.5	0	0	---	0.00	29.782 
21:55	68.1	68.1	68.1	71	58.3	0	0	---	0.00	29.780 
22:00	68.1	68.1	68.1	71	58.3	0	0	---	0.00	29.779 
22:05	68.3	68.3	68.3	71	58.5	0	0	---	0.00	29.777 
22:10	68.4	68.4	68.4	71	58.6	0	0	---	0.00	29.777 
22:15	68.4	68.4	68.4	70	58.2	0	0	---	0.00	29.778 
22:20	68.4	68.4	68.4	70	58.2	0	0	---	0.00	29.778 
22:25	68.3	68.3	68.3	71	58.5	0	0	---	0.00	29.778 
22:30	68.3	68.3	68.3	71	58.5	0	0	---	0.00	29.777 
22:35	68.1	68.1	68.1	72	58.7	0	0	---	0.00	29.777 
22:40	67.9	67.9	67.9	72	58.5	0	0	---	0.00	29.777 
22:45	67.8	67.8	67.8	72	58.4	0	0	---	0.00	29.777 
22:50	67.6	67.6	67.6	72	58.2	0	0	---	0.00	29.777 
22:55	67.6	67.6	67.6	73	58.6	0	0	---	0.00	29.778 
23:00	67.4	67.4	67.4	73	58.4	0	0	---	0.00	29.779 
23:05	67.3	67.3	67.3	73	58.3	0	0	---	0.00	29.778 
23:10	67.1	67.1	67.1	74	58.5	0	0	---	0.00	29.779 
23:15	67.1	67.1	67.1	74	58.5	0	0	---	0.00	29.778 
23:20	66.9	66.9	66.9	75	58.7	0	0	---	0.00	29.778 
23:25	66.9	66.9	66.9	75	58.7	0	0	---	0.00	29.777 
23:30	66.8	66.8	66.8	75	58.6	0	0	---	0.00	29.777 
23:35	66.8	66.8	66.8	75	58.6	0	0	---	0.00	29.778 
23:40	66.6	66.6	66.6	75	58.4	0	0	---	0.00	29.778 
23:45	66.6	66.6	66.6	76	58.8	0	0	---	0.00	29.778 
23:50	66.6	66.6	66.6	76	58.8	0	0	---	0.00	29.778 
23:55	66.4	66.4	66.4	76	58.6	0	0	---	0.00	29.778 

CoCoRaHS
IN-AL-39
A2 Web Hosting
Creative Commons License
GoDaddy
Look for:

loaded 2017-10-17 09:34:37 • last modified 2010-11-18 10:43:29
Privacy PolicyDisclaimer
• wx.awcolley.com is powered by PmWiki v.2002016 •
• all content (unless otherwise noted) © 2017 A W Colley